Time;durP1;ratioP1;P1;durP2;ratioP2;P2;SDS_P1;SDS_P2;PMS_P1;PMS_P2;Temp;Humidity;BMP_temperature;BMP_pressure;BME280_temperature;BME280_humidity;BME280_pressure;Samples;Min_cycle;Max_cycle;Signal;HPM_P1;HPM_P2
2022/08/08 00:00:00;;;;;;;16.23;5.05;;;;;;;29.48;39.91;99680.06;5090376;28;20042;-67
2022/08/08 00:02:34;;;;;;;13.43;5.20;;;;;;;29.30;40.33;99658.81;5065791;28;20146;-67
2022/08/08 00:05:11;;;;;;;15.82;5.00;;;;;;;29.53;40.14;99679.22;5073559;28;20401;-68
2022/08/08 00:08:02;;;;;;;13.77;5.40;;;;;;;29.50;39.94;99688.00;5073393;28;20116;-69
2022/08/08 00:10:39;;;;;;;13.77;4.72;;;;;;;29.39;40.28;99681.75;5090302;28;20075;-68
2022/08/08 00:13:25;;;;;;;8.70;5.45;;;;;;;29.44;40.19;99687.22;5090134;28;20040;-69
2022/08/08 00:16:17;;;;;;;11.88;6.20;;;;;;;29.36;40.26;99679.56;5056944;28;20079;-68
2022/08/08 00:18:54;;;;;;;8.30;5.43;;;;;;;29.36;40.59;99696.00;5070930;28;20044;-68
2022/08/08 00:21:26;;;;;;;10.35;5.68;;;;;;;29.34;40.60;99692.69;5073873;28;20043;-68
2022/08/08 00:23:58;;;;;;;8.80;5.53;;;;;;;29.29;40.86;99675.50;5090409;28;20048;-69
2022/08/08 00:26:34;;;;;;;11.05;5.68;;;;;;;29.21;40.84;99698.78;5072518;28;20075;-69
2022/08/08 00:29:03;;;;;;;6.82;5.95;;;;;;;29.31;41.17;99698.72;5072791;28;20036;-69
2022/08/08 00:31:33;;;;;;;8.65;6.03;;;;;;;29.14;41.22;99676.34;5056040;28;20135;-69
2022/08/08 00:36:57;;;;;;;8.85;6.63;;;;;;;29.17;41.81;99696.84;5072683;28;20417;-69
2022/08/08 00:39:38;;;;;;;11.05;6.25;;;;;;;29.18;41.85;99696.59;5072908;28;20046;-69
2022/08/08 00:42:09;;;;;;;9.60;5.82;;;;;;;29.17;41.83;99696.84;5056244;28;20508;-69
2022/08/08 00:45:10;;;;;;;10.77;5.80;;;;;;;29.16;42.19;99704.25;5089704;28;20068;-70
2022/08/08 00:47:53;;;;;;;8.07;5.60;;;;;;;29.12;42.70;99696.88;5048005;28;20048;-68
2022/08/08 00:50:43;;;;;;;7.80;5.20;;;;;;;29.14;42.49;99698.22;5072740;28;20075;-68
2022/08/08 00:53:41;;;;;;;9.27;5.97;;;;;;;29.15;42.72;99701.78;5072813;28;20047;-69
2022/08/08 00:56:12;;;;;;;8.80;5.85;;;;;;;28.85;43.05;99696.34;5072789;28;20044;-68
2022/08/08 00:58:41;;;;;;;10.07;6.53;;;;;;;28.96;42.93;99697.97;5072374;28;20516;-69
2022/08/08 01:01:33;;;;;;;9.25;6.80;;;;;;;29.10;42.84;99699.06;5089642;28;20151;-68
2022/08/08 01:04:24;;;;;;;12.07;6.13;;;;;;;29.01;43.07;99687.03;5073796;28;20394;-69
2022/08/08 01:07:49;;;;;;;9.35;6.55;;;;;;;28.98;42.97;99684.84;5089196;28;20079;-68
2022/08/08 01:10:25;;;;;;;11.32;7.03;;;;;;;28.89;43.40;99695.50;5071284;28;20052;-68
2022/08/08 01:13:09;;;;;;;15.65;7.80;;;;;;;28.94;43.47;99687.28;5055007;28;20056;-67
2022/08/08 01:15:45;;;;;;;10.55;7.60;;;;;;;28.94;43.42;99690.03;5085352;28;20056;-68
2022/08/08 01:18:40;;;;;;;13.35;7.65;;;;;;;29.04;43.23;99686.47;5089319;28;20058;-68
2022/08/08 01:21:18;;;;;;;11.30;7.45;;;;;;;29.10;42.93;99699.06;5072760;28;20055;-68
2022/08/08 01:23:44;;;;;;;10.45;7.07;;;;;;;28.96;43.03;99692.50;5090613;28;20048;-70
2022/08/08 01:26:39;;;;;;;14.68;7.53;;;;;;;29.12;42.76;99694.16;5089540;28;20123;-69
2022/08/08 01:29:12;;;;;;;9.45;7.60;;;;;;;29.16;42.75;99696.06;5091042;28;20040;-69
2022/08/08 01:31:46;;;;;;;13.35;7.65;;;;;;;29.18;42.94;99693.03;5072573;28;20048;-69
2022/08/08 01:34:37;;;;;;;10.05;7.47;;;;;;;29.23;42.49;99688.34;5072429;28;20047;-69
2022/08/08 01:37:07;;;;;;;11.23;7.50;;;;;;;29.13;42.70;99688.41;5090229;28;20524;-69
2022/08/08 01:39:59;;;;;;;10.02;6.95;;;;;;;29.22;42.26;99678.53;5074372;28;20162;-69
2022/08/08 01:43:03;;;;;;;11.68;7.32;;;;;;;29.26;42.29;99689.75;5075742;28;20040;-68
2022/08/08 01:45:35;;;;;;;;;;;;;;;29.32;42.12;99686.69;5076328;28;20036;-68
2022/08/08 01:48:36;;;;;;;10.48;7.25;;;;;;;29.35;42.15;99685.31;5075311;28;20759;-68
2022/08/08 01:51:14;;;;;;;10.38;7.68;;;;;;;29.36;42.35;99684.22;5068609;28;20138;-68
2022/08/08 01:54:14;;;;;;;9.10;7.05;;;;;;;29.43;41.93;99687.50;5092671;28;20048;-70
2022/08/08 01:56:59;;;;;;;11.88;6.97;;;;;;;29.37;42.12;99689.41;5075688;28;20044;-67
2022/08/08 01:59:38;;;;;;;12.07;7.30;;;;;;;29.44;42.05;99681.75;5042534;28;20046;-67
2022/08/08 02:02:22;;;;;;;12.25;7.65;;;;;;;29.50;41.97;99686.09;5075407;28;20519;-67
2022/08/08 02:05:05;;;;;;;11.15;7.63;;;;;;;29.21;42.48;99690.56;5092316;28;20504;-68
2022/08/08 02:08:06;;;;;;;8.45;7.10;;;;;;;29.36;41.77;99668.63;5058632;28;20067;-67
2022/08/08 02:11:02;;;;;;;10.02;7.50;;;;;;;29.47;41.86;99683.91;5091851;28;20458;-68
2022/08/08 02:13:44;;;;;;;13.45;7.25;;;;;;;29.44;41.80;99678.16;5075205;28;20066;-68
2022/08/08 02:16:40;;;;;;;9.68;7.30;;;;;;;29.43;42.26;99685.56;5058125;28;20052;-68
2022/08/08 02:19:30;;;;;;;14.85;8.07;;;;;;;29.46;42.23;99684.19;5060033;28;20065;-68
2022/08/08 02:22:32;;;;;;;10.75;8.07;;;;;;;29.50;42.20;99688.00;5090349;28;20055;-68
2022/08/08 02:25:19;;;;;;;9.20;7.03;;;;;;;29.28;42.30;99691.09;5058854;28;20391;-68
2022/08/08 02:28:09;;;;;;;14.48;8.07;;;;;;;29.36;41.93;99667.78;5073430;28;20517;-68
2022/08/08 02:30:41;;;;;;;10.38;8.43;;;;;;;29.35;42.12;99688.06;5091932;28;20050;-68
2022/08/08 02:33:35;;;;;;;9.77;7.63;;;;;;;29.58;41.31;99687.44;5074933;28;20048;-69
2022/08/08 02:36:10;;;;;;;9.73;7.20;;;;;;;29.59;41.15;99686.31;5075060;28;20048;-68
2022/08/08 02:39:14;;;;;;;12.77;7.80;;;;;;;29.73;40.81;99694.75;5074981;28;20048;-68
2022/08/08 02:41:56;;;;;;;11.70;7.70;;;;;;;29.75;40.80;99696.16;5075050;28;20417;-68
2022/08/08 02:44:36;;;;;;;9.68;7.60;;;;;;;29.73;40.99;99706.53;5092684;28;20098;-69
2022/08/08 02:47:24;;;;;;;10.80;7.67;;;;;;;29.82;40.43;99693.91;5058109;28;20051;-69
2022/08/08 02:50:29;;;;;;;12.40;7.88;;;;;;;29.82;40.65;99712.25;5089364;28;20293;-69
2022/08/08 02:52:58;;;;;;;12.30;8.02;;;;;;;29.75;40.68;99714.47;5092317;28;20047;-69
2022/08/08 02:56:00;;;;;;;11.32;7.20;;;;;;;29.60;41.20;99707.94;5075033;28;20060;-69
2022/08/08 02:59:06;;;;;;;12.40;8.38;;;;;;;29.77;41.17;99717.75;5057209;28;20501;-67
2022/08/08 03:02:20;;;;;;;10.85;8.70;;;;;;;29.81;41.07;99716.09;5062529;28;20106;-67
2022/08/08 03:05:01;;;;;;;11.90;9.10;;;;;;;29.54;41.88;99720.00;5042363;28;20130;-68
2022/08/08 03:07:50;;;;;;;15.13;9.55;;;;;;;29.78;41.70;99731.19;5074186;28;20055;-68
2022/08/08 03:10:49;;;;;;;12.30;9.45;;;;;;;29.77;41.81;99726.78;5073877;28;20050;-69
2022/08/08 03:13:41;;;;;;;15.15;10.20;;;;;;;29.74;42.04;99719.13;5074304;28;20505;-69
2022/08/08 03:16:42;;;;;;;12.98;10.93;;;;;;;29.76;42.30;99727.88;5074100;28;20063;-69
2022/08/08 03:19:49;;;;;;;11.93;10.63;;;;;;;29.83;42.25;99724.84;5073988;28;20051;-70
2022/08/08 03:22:15;;;;;;;16.33;11.25;;;;;;;29.73;42.25;99735.84;5090833;28;20515;-68
2022/08/08 03:24:41;;;;;;;16.58;11.63;;;;;;;29.71;42.50;99738.06;5090541;28;20043;-68
2022/08/08 03:27:19;;;;;;;15.23;11.38;;;;;;;29.92;42.50;99732.22;5073559;28;20097;-68
2022/08/08 03:29:53;;;;;;;12.25;10.95;;;;;;;29.87;42.21;99718.53;5040486;28;20051;-68
2022/08/08 03:35:07;;;;;;;15.50;10.10;;;;;;;30.14;41.67;99732.63;5059489;28;20201;-69
2022/08/08 03:37:33;;;;;;;12.10;10.20;;;;;;;30.07;41.62;99734.84;5057029;28;20044;-68
2022/08/08 03:40:00;;;;;;;19.63;10.15;;;;;;;30.07;41.18;99750.47;5056854;28;20044;-68
2022/08/08 03:42:26;;;;;;;12.07;9.27;;;;;;;30.01;40.83;99741.47;5057097;28;20059;-69
2022/08/08 03:44:52;;;;;;;13.52;9.60;;;;;;;30.20;40.68;99758.13;5073458;28;20481;-69
2022/08/08 03:47:20;;;;;;;15.13;9.75;;;;;;;30.14;40.71;99742.78;5073518;28;20036;-69
2022/08/08 03:49:49;;;;;;;13.93;9.27;;;;;;;30.21;40.76;99746.88;5073942;28;20071;-68
2022/08/08 03:52:18;;;;;;;10.95;8.63;;;;;;;30.29;40.43;99754.47;5090510;28;20043;-68
2022/08/08 03:54:45;;;;;;;12.70;9.50;;;;;;;30.41;40.19;99765.09;5090760;28;20067;-68
2022/08/08 03:57:16;;;;;;;9.65;8.20;;;;;;;30.62;39.83;99769.31;5090126;28;20062;-68
2022/08/08 03:59:41;;;;;;;17.55;9.70;;;;;;;30.58;39.73;99752.66;5090361;28;20554;-68
2022/08/08 04:02:16;;;;;;;12.98;9.25;;;;;;;30.87;39.32;99767.25;5072585;28;20078;-68
2022/08/08 04:04:43;;;;;;;15.65;10.82;;;;;;;30.88;39.34;99768.06;5072973;28;20484;-68
2022/08/08 04:07:09;;;;;;;11.43;10.00;;;;;;;30.96;39.17;99767.44;5091206;28;20036;-68
2022/08/08 04:09:37;;;;;;;14.45;11.93;;;;;;;30.95;39.23;99771.31;5072914;28;20048;-69
2022/08/08 04:12:03;;;;;;;12.63;11.25;;;;;;;31.01;39.13;99764.66;5089979;28;20519;-68
2022/08/08 04:17:36;;;;;;;13.32;11.93;;;;;;;31.06;39.15;99770.91;5090839;28;20409;-68
2022/08/08 04:20:03;;;;;;;14.93;11.25;;;;;;;30.98;39.04;99773.47;5039458;28;20559;-68
2022/08/08 04:22:37;;;;;;;18.30;12.40;;;;;;;30.94;39.11;99778.72;5090236;28;20040;-68
2022/08/08 04:25:05;;;;;;;15.00;12.07;;;;;;;30.97;39.00;99778.13;5072960;28;20551;-69
2022/08/08 04:27:31;;;;;;;14.10;12.27;;;;;;;30.85;38.85;99765.88;5089963;28;20051;-67
2022/08/08 04:30:00;;;;;;;16.42;12.88;;;;;;;31.01;38.93;99778.38;5073394;28;20044;-68
2022/08/08 04:32:26;;;;;;;13.73;11.02;;;;;;;31.01;38.33;99778.38;5089276;28;20122;-68
2022/08/08 04:34:52;;;;;;;16.10;10.95;;;;;;;31.02;38.00;99767.13;5072720;28;20082;-67
2022/08/08 04:37:17;;;;;;;13.70;10.93;;;;;;;31.07;37.87;99780.81;5089813;28;20130;-67
2022/08/08 04:39:43;;;;;;;12.02;10.52;;;;;;;31.07;38.09;99785.47;5089423;28;20043;-69
2022/08/08 04:42:10;;;;;;;16.58;11.40;;;;;;;30.79;38.24;99791.72;5056123;28;20067;-67
2022/08/08 04:44:36;;;;;;;12.02;10.48;;;;;;;30.68;38.77;99787.38;5090786;28;20493;-67
2022/08/08 04:47:02;;;;;;;15.98;10.48;;;;;;;30.63;38.80;99793.72;5089266;28;20044;-68
2022/08/08 04:49:28;;;;;;;13.40;10.25;;;;;;;30.65;39.07;99794.25;5055711;28;20039;-67
2022/08/08 04:51:54;;;;;;;10.40;9.40;;;;;;;30.81;38.54;99805.97;5055977;28;20044;-67
2022/08/08 04:54:20;;;;;;;10.20;9.20;;;;;;;30.86;38.07;99809.50;5089774;28;20131;-69
2022/08/08 04:56:46;;;;;;;19.15;9.13;;;;;;;30.68;38.12;99790.13;5089044;28;20539;-67
2022/08/08 04:59:12;;;;;;;10.30;8.40;;;;;;;30.76;38.01;99809.56;5055903;28;20039;-67
2022/08/08 05:01:38;;;;;;;12.18;8.32;;;;;;;30.75;38.35;99812.59;5067187;28;20064;-65
2022/08/08 05:04:03;;;;;;;14.23;8.23;;;;;;;30.78;38.27;99809.28;5073178;28;20061;-66
2022/08/08 05:06:33;;;;;;;13.77;7.65;;;;;;;30.71;38.25;99812.31;5052161;28;20083;-65
2022/08/08 05:08:59;;;;;;;9.48;7.63;;;;;;;30.74;37.92;99813.66;5069089;28;20445;-65
2022/08/08 05:11:25;;;;;;;11.57;6.82;;;;;;;30.61;38.12;99803.34;5067585;28;20044;-64
2022/08/08 05:13:55;;;;;;;9.75;7.20;;;;;;;30.68;38.27;99817.53;5068831;28;20040;-67
2022/08/08 05:16:21;;;;;;;11.18;7.22;;;;;;;30.66;38.24;99817.03;5072325;28;20067;-67
2022/08/08 05:18:47;;;;;;;11.07;6.18;;;;;;;30.66;38.04;99825.25;5055175;28;20044;-66
2022/08/08 05:21:13;;;;;;;14.65;6.10;;;;;;;30.55;38.29;99821.72;5073217;28;20575;-66
2022/08/08 05:23:39;;;;;;;10.07;6.65;;;;;;;30.48;38.19;99825.91;5072301;28;20051;-65
2022/08/08 05:26:05;;;;;;;10.73;6.07;;;;;;;30.31;38.40;99820.78;5081783;28;20089;-69
2022/08/08 05:28:31;;;;;;;12.15;6.43;;;;;;;30.16;38.62;99840.03;5041425;28;20063;-69
2022/08/08 05:30:57;;;;;;;7.70;5.93;;;;;;;30.04;39.13;99836.78;5056205;28;20047;-68
2022/08/08 05:33:22;;;;;;;11.98;6.45;;;;;;;30.11;38.70;99834.56;5056500;28;20040;-68
2022/08/08 05:35:49;;;;;;;7.68;6.00;;;;;;;30.37;38.14;99829.81;5055960;28;20089;-69
2022/08/08 05:38:17;;;;;;;9.93;6.57;;;;;;;30.67;37.75;99826.88;5072037;28;20051;-67
2022/08/08 05:40:52;;;;;;;10.30;7.00;;;;;;;30.94;37.10;99836.31;5073753;28;20043;-68
2022/08/08 05:43:30;;;;;;;10.57;8.35;;;;;;;31.10;36.72;99835.09;5055566;28;20074;-74
2022/08/08 05:46:03;;;;;;;19.27;8.82;;;;;;;30.97;36.52;99833.00;5073317;28;20127;-76
2022/08/08 05:48:32;;;;;;;;;;;;;;;31.14;36.73;99846.31;5040193;28;20063;-68
2022/08/08 05:50:59;;;;;;;9.07;7.97;;;;;;;30.94;36.79;99840.97;5072112;28;19943;-68
2022/08/08 05:53:25;;;;;;;13.55;7.53;;;;;;;31.09;36.89;99832.66;5088976;28;20473;-69
2022/08/08 05:55:58;;;;;;;10.23;7.93;;;;;;;31.37;36.21;99847.53;5055420;28;20125;-66
2022/08/08 05:58:27;;;;;;;11.43;7.32;;;;;;;31.40;36.26;99825.78;5070526;28;20550;-66
2022/08/08 06:00:55;;;;;;;13.05;7.38;;;;;;;31.56;36.00;99851.16;5038386;28;20935;-68
2022/08/08 06:03:22;;;;;;;8.50;6.97;;;;;;;31.47;35.87;99852.91;5038454;28;20060;-66
2022/08/08 06:05:53;;;;;;;19.27;7.72;;;;;;;31.61;35.82;99859.38;5072538;28;20070;-66
2022/08/08 06:08:29;;;;;;;15.23;8.85;;;;;;;31.61;34.72;99840.97;5072803;28;20051;-65
2022/08/08 06:10:59;;;;;;;13.68;8.57;;;;;;;31.77;34.72;99864.41;5072168;28;20134;-66
2022/08/08 06:13:27;;;;;;;15.00;8.68;;;;;;;31.89;34.12;99856.59;5037667;28;20459;-65
2022/08/08 06:15:55;;;;;;;9.95;8.10;;;;;;;31.97;34.34;99863.38;5089000;28;20047;-67
2022/08/08 06:18:41;;;;;;;8.55;7.65;;;;;;;32.05;34.19;99860.84;5073785;28;20060;-67
2022/08/08 06:21:08;;;;;;;9.43;7.70;;;;;;;32.19;34.48;99870.00;5071450;28;20108;-68
2022/08/08 06:23:34;;;;;;;13.20;7.63;;;;;;;32.15;34.18;99873.63;5088207;28;20058;-65
2022/08/08 06:26:05;;;;;;;10.98;7.15;;;;;;;32.25;34.34;99866.09;5087547;28;20055;-66
2022/08/08 06:28:47;;;;;;;10.48;7.00;;;;;;;32.38;34.33;99873.63;5071841;28;20040;-65
2022/08/08 06:31:20;;;;;;;12.75;7.45;;;;;;;32.34;34.40;99871.72;5072029;28;20075;-66
2022/08/08 06:34:05;;;;;;;13.00;7.80;;;;;;;32.49;34.12;99877.88;5055095;28;20048;-69
2022/08/08 06:36:39;;;;;;;13.27;8.13;;;;;;;32.66;33.42;99861.69;5088207;28;20044;-68
2022/08/08 06:39:08;;;;;;;9.07;7.25;;;;;;;32.84;33.36;99884.00;5087986;28;20449;-67
2022/08/08 06:42:00;;;;;;;11.60;8.77;;;;;;;33.15;32.47;99882.47;5071882;28;20044;-66
2022/08/08 06:44:37;;;;;;;14.70;8.80;;;;;;;33.18;32.07;99877.19;5086404;28;20052;-65
2022/08/08 06:47:02;;;;;;;15.85;8.57;;;;;;;33.24;32.32;99891.66;5071067;28;20036;-66
2022/08/08 06:49:29;;;;;;;12.55;9.27;;;;;;;33.19;31.96;99887.06;5087441;28;20036;-65
2022/08/08 06:51:55;;;;;;;11.63;9.02;;;;;;;33.02;31.93;99891.47;5054207;28;20198;-65
2022/08/08 06:54:24;;;;;;;13.35;9.50;;;;;;;33.01;32.14;99889.84;5088359;28;20113;-66
2022/08/08 06:56:53;;;;;;;12.65;11.15;;;;;;;32.86;32.24;99873.53;5069590;28;20032;-68
2022/08/08 06:59:20;;;;;;;11.82;10.00;;;;;;;32.79;32.15;99884.06;5071402;28;20096;-66
2022/08/08 07:01:54;;;;;;;11.32;10.23;;;;;;;32.91;32.46;99887.22;5087256;28;20044;-66
2022/08/08 07:04:30;;;;;;;15.75;10.05;;;;;;;32.85;32.32;99885.63;5087120;28;20067;-63
2022/08/08 07:06:59;;;;;;;19.20;11.25;;;;;;;33.06;32.31;99876.00;5087463;28;20040;-67
2022/08/08 07:09:41;;;;;;;15.50;11.02;;;;;;;33.24;31.50;99884.25;5087160;28;20055;-67
2022/08/08 07:12:08;;;;;;;15.93;11.63;;;;;;;33.04;31.81;99884.56;5069791;28;20143;-66
2022/08/08 07:15:05;;;;;;;15.10;11.90;;;;;;;33.16;31.70;99886.84;5070042;28;20040;-66
2022/08/08 07:17:39;;;;;;;16.05;11.35;;;;;;;33.08;32.09;99891.09;5086927;28;20046;-65
2022/08/08 07:20:07;;;;;;;17.35;11.00;;;;;;;33.03;32.13;99882.91;5070073;28;20143;-66
2022/08/08 07:22:50;;;;;;;15.15;11.02;;;;;;;33.23;31.68;99887.28;5070610;28;20507;-65
2022/08/08 07:25:16;;;;;;;15.70;11.07;;;;;;;33.55;31.05;99890.06;5069371;28;20113;-65
2022/08/08 07:27:46;;;;;;;16.33;12.13;;;;;;;34.12;30.27;99895.09;5070281;28;20390;-65
2022/08/08 07:30:13;;;;;;;17.08;11.32;;;;;;;34.29;29.50;99894.47;5070144;28;20044;-66
2022/08/08 07:32:41;;;;;;;15.07;11.35;;;;;;;34.33;29.65;99862.38;5087236;28;20052;-66
2022/08/08 07:35:11;;;;;;;18.40;11.73;;;;;;;34.34;29.51;99886.09;5070282;28;20044;-66
2022/08/08 07:37:42;;;;;;;14.40;11.10;;;;;;;34.17;30.08;99878.44;5070629;28;20044;-66
2022/08/08 07:40:09;;;;;;;14.35;10.30;;;;;;;34.13;30.12;99894.78;5069752;28;20071;-67
2022/08/08 07:42:37;;;;;;;14.07;9.88;;;;;;;33.91;30.43;99897.41;5070377;28;20040;-66
2022/08/08 07:45:06;;;;;;;;;;;;;;;34.16;29.77;99893.34;5086983;28;20060;-66
2022/08/08 07:47:36;;;;;;;20.30;9.80;;;;;;;33.98;29.81;99877.72;5070736;28;19966;-67
2022/08/08 07:50:03;;;;;;;13.30;10.23;;;;;;;34.09;29.90;99891.00;5052745;28;20134;-64
2022/08/08 07:52:30;;;;;;;20.05;10.45;;;;;;;34.41;29.21;99892.03;5087800;28;20043;-65
2022/08/08 07:55:26;;;;;;;14.40;10.18;;;;;;;37.29;25.17;99885.66;5069649;28;20051;-65
2022/08/08 07:57:56;;;;;;;11.00;8.15;;;;;;;39.94;21.91;99884.84;5064337;28;20052;-64
2022/08/08 08:00:28;;;;;;;15.87;8.37;;;;;;;40.78;20.72;99895.19;5086248;28;20147;-66
2022/08/08 08:03:05;;;;;;;14.05;8.63;;;;;;;41.12;20.29;99877.94;5070758;28;20048;-66
2022/08/08 08:05:40;;;;;;;13.03;8.33;;;;;;;41.08;19.76;99883.38;5052673;28;20048;-66
2022/08/08 08:08:16;;;;;;;12.90;8.15;;;;;;;40.80;20.18;99881.72;5069448;28;20832;-66
2022/08/08 08:10:51;;;;;;;13.43;7.55;;;;;;;40.45;20.50;99883.38;5086051;28;20596;-66
2022/08/08 08:13:35;;;;;;;12.88;7.43;;;;;;;39.70;21.17;99895.91;5068069;28;20090;-66
2022/08/08 08:16:02;;;;;;;10.77;8.23;;;;;;;38.90;22.28;99893.66;5069174;28;20488;-66
2022/08/08 08:18:42;;;;;;;10.50;7.57;;;;;;;38.46;22.87;99893.13;5086528;28;20068;-66
2022/08/08 08:21:09;;;;;;;12.82;8.07;;;;;;;37.75;23.83;99887.72;5069527;28;20509;-67
2022/08/08 08:23:41;;;;;;;15.13;8.73;;;;;;;37.38;24.10;99880.09;5086504;28;20085;-66
2022/08/08 08:26:08;;;;;;;16.35;9.57;;;;;;;37.20;24.08;99887.59;5085568;28;20135;-67
2022/08/08 08:28:34;;;;;;;15.90;8.70;;;;;;;37.00;24.62;99883.53;5068955;28;20420;-65
2022/08/08 08:31:03;;;;;;;11.35;8.60;;;;;;;37.20;24.20;99884.81;5085066;28;20047;-66
2022/08/08 08:33:31;;;;;;;15.63;10.15;;;;;;;37.56;23.74;99878.94;5069563;28;20044;-67
2022/08/08 08:35:59;;;;;;;16.25;8.82;;;;;;;37.87;23.40;99893.38;5086104;28;20043;-67
2022/08/08 08:38:24;;;;;;;12.25;9.00;;;;;;;38.54;22.30;99895.06;5069400;28;20523;-65
2022/08/08 08:40:58;;;;;;;11.52;9.27;;;;;;;39.00;22.07;99896.88;5085855;28;20047;-67
2022/08/08 08:43:27;;;;;;;13.55;9.52;;;;;;;39.28;21.29;99894.34;5052978;28;20097;-66
2022/08/08 08:45:56;;;;;;;13.05;9.20;;;;;;;39.16;21.57;99894.31;5069213;28;20436;-65
2022/08/08 08:48:22;;;;;;;16.35;8.68;;;;;;;39.06;22.12;99892.75;5085914;28;20044;-66
2022/08/08 08:50:52;;;;;;;16.08;8.98;;;;;;;38.91;21.89;99898.06;5086846;28;20047;-65
2022/08/08 08:53:20;;;;;;;14.20;8.30;;;;;;;38.72;21.87;99882.69;5069362;28;20089;-66
2022/08/08 08:55:47;;;;;;;17.67;8.77;;;;;;;39.28;21.46;99897.13;5068920;28;20197;-67
2022/08/08 08:58:26;;;;;;;14.40;8.77;;;;;;;39.94;20.74;99899.59;5067048;28;20036;-65
2022/08/08 09:00:53;;;;;;;12.88;7.63;;;;;;;40.24;20.53;99898.19;5052029;28;20044;-65
2022/08/08 09:03:22;;;;;;;14.60;7.32;;;;;;;40.48;19.72;99888.25;5069032;28;20039;-65
2022/08/08 09:05:48;;;;;;;11.80;7.90;;;;;;;40.08;20.33;99883.38;5086870;28;20144;-65
2022/08/08 09:08:15;;;;;;;13.90;7.45;;;;;;;39.57;20.83;99894.25;5085378;28;20050;-65
2022/08/08 09:10:41;;;;;;;18.95;8.18;;;;;;;38.64;21.99;99894.66;5051712;28;20050;-65
2022/08/08 09:13:07;;;;;;;15.13;8.15;;;;;;;38.05;22.45;99890.22;5084189;28;20048;-65
2022/08/08 09:15:33;;;;;;;12.80;8.55;;;;;;;37.71;22.88;99881.19;5068504;28;20113;-65
2022/08/08 09:17:59;;;;;;;14.48;9.02;;;;;;;37.50;23.55;99889.38;5086361;28;20082;-66
2022/08/08 09:20:28;;;;;;;17.07;7.83;;;;;;;37.54;23.34;99890.34;5085240;28;20051;-65
2022/08/08 09:22:56;;;;;;;12.23;7.45;;;;;;;37.85;22.86;99888.16;5068930;28;20043;-66
2022/08/08 09:25:23;;;;;;;15.57;7.82;;;;;;;38.45;22.25;99885.97;5068722;28;20449;-66
2022/08/08 09:27:50;;;;;;;11.70;7.63;;;;;;;39.05;21.51;99893.09;5085389;28;20036;-66
2022/08/08 09:30:16;;;;;;;13.57;7.40;;;;;;;39.58;20.88;99888.34;5084816;28;20050;-65
2022/08/08 09:32:49;;;;;;;11.82;5.80;;;;;;;41.40;19.02;99901.84;5068350;28;20129;-65
2022/08/08 09:35:23;;;;;;;9.75;6.20;;;;;;;42.03;18.26;99896.44;5085073;28;20151;-65
2022/08/08 09:38:00;;;;;;;13.18;6.88;;;;;;;41.66;18.81;99893.03;5068571;28;20043;-65
2022/08/08 09:40:31;;;;;;;12.63;6.82;;;;;;;40.88;19.09;99897.47;5084821;28;20055;-65
2022/08/08 09:43:08;;;;;;;12.20;6.75;;;;;;;39.98;19.82;99875.47;5068003;28;20055;-65
2022/08/08 09:45:40;;;;;;;13.40;6.55;;;;;;;39.19;20.96;99893.63;5085143;28;20040;-65
2022/08/08 09:48:08;;;;;;;15.65;7.13;;;;;;;38.57;21.64;99866.63;5085093;28;20082;-65
2022/08/08 09:50:44;;;;;;;15.77;7.47;;;;;;;38.40;22.04;99888.09;5069564;28;20559;-65
2022/08/08 09:53:13;;;;;;;14.63;7.15;;;;;;;38.77;21.79;99872.56;5085256;28;20048;-65
2022/08/08 09:55:40;;;;;;;17.88;7.10;;;;;;;40.42;20.01;99886.84;5085476;28;20090;-64
2022/08/08 09:58:10;;;;;;;10.65;6.03;;;;;;;42.28;18.09;99892.25;5066262;28;20566;-65
2022/08/08 10:00:37;;;;;;;15.05;6.80;;;;;;;44.98;15.46;99894.75;5070019;28;20044;-66
2022/08/08 10:03:04;;;;;;;11.25;5.95;;;;;;;47.49;13.25;99897.31;5071765;28;20142;-65
2022/08/08 10:05:35;;;;;;;10.93;6.22;;;;;;;49.38;11.52;99889.91;5071663;28;20048;-65
2022/08/08 10:08:01;;;;;;;11.27;5.35;;;;;;;50.37;10.87;99896.50;5071625;28;20036;-66
2022/08/08 10:10:36;;;;;;;14.27;5.38;;;;;;;51.70;9.79;99893.31;5089485;28;20093;-68
2022/08/08 10:13:23;;;;;;;12.70;5.03;;;;;;;52.43;8.75;99896.16;5088672;28;20440;-66
2022/08/08 10:15:51;;;;;;;12.93;5.10;;;;;;;51.44;9.59;99897.69;5088798;28;20101;-66
2022/08/08 10:18:34;;;;;;;17.10;5.55;;;;;;;49.54;10.98;99881.78;5088226;28;20588;-66
2022/08/08 10:21:08;;;;;;;12.48;5.45;;;;;;;47.45;12.11;99885.25;5087992;28;20040;-66
2022/08/08 10:23:34;;;;;;;11.35;5.70;;;;;;;45.71;13.76;99880.00;5071508;28;20047;-66
2022/08/08 10:26:03;;;;;;;11.50;5.68;;;;;;;44.43;14.97;99871.13;5070303;28;20496;-65
2022/08/08 10:28:30;;;;;;;12.90;6.63;;;;;;;43.22;15.87;99880.50;5053605;28;20044;-66
2022/08/08 10:32:30;;;;;;;11.10;6.10;;;;;;;42.05;17.15;99871.75;5087913;28;20040;-65
2022/08/08 10:33:46;;;;;;;13.25;6.47;;;;;;;40.64;18.52;99852.94;5088278;28;20463;-65
2022/08/08 10:36:14;;;;;;;11.43;7.13;;;;;;;40.09;19.21;99865.50;5090345;28;20389;-65
2022/08/08 10:38:46;;;;;;;10.65;6.05;;;;;;;39.81;19.76;99855.38;5087767;28;20507;-65
2022/08/08 10:41:16;;;;;;;12.27;6.32;;;;;;;39.87;19.86;99859.59;5088322;28;20036;-66
2022/08/08 10:43:41;;;;;;;;;;;;;;;39.86;19.49;99869.88;5090608;28;20499;-65
2022/08/08 10:46:24;;;;;;;10.63;6.40;;;;;;;39.71;19.67;99866.94;5088865;28;20010;-66
2022/08/08 10:48:55;;;;;;;16.20;6.35;;;;;;;39.86;19.76;99863.50;5055985;28;20497;-66
2022/08/08 10:51:22;;;;;;;10.25;5.75;;;;;;;39.92;19.76;99835.13;5070609;28;20039;-65
2022/08/08 10:53:51;;;;;;;9.73;6.22;;;;;;;41.39;18.88;99857.59;5088022;28;20130;-65
2022/08/08 10:56:17;;;;;;;11.30;5.45;;;;;;;42.62;17.26;99855.19;5087714;28;20052;-65
2022/08/08 10:58:43;;;;;;;13.43;5.97;;;;;;;42.81;17.13;99867.22;5068738;28;20031;-65
2022/08/08 11:01:10;;;;;;;10.48;6.30;;;;;;;42.50;17.22;99861.72;5088339;28;20154;-65
2022/08/08 11:03:43;;;;;;;8.60;6.15;;;;;;;41.62;18.21;99858.66;5087104;28;20043;-65
2022/08/08 11:06:14;;;;;;;11.52;6.90;;;;;;;40.83;18.93;99853.97;5088566;28;20048;-66
2022/08/08 11:08:40;;;;;;;11.35;7.40;;;;;;;40.03;19.67;99852.16;5071235;28;20044;-65
2022/08/08 11:11:08;;;;;;;14.10;7.95;;;;;;;39.63;20.43;99851.16;5088397;28;20044;-66
2022/08/08 11:13:54;;;;;;;13.60;7.25;;;;;;;38.98;21.19;99846.38;5086598;28;20113;-66
2022/08/08 11:16:22;;;;;;;14.80;8.00;;;;;;;38.91;21.15;99848.88;5087072;28;20043;-66
2022/08/08 11:18:49;;;;;;;12.57;6.88;;;;;;;38.68;21.52;99842.88;5088031;28;20074;-66
2022/08/08 11:21:17;;;;;;;11.32;7.35;;;;;;;38.61;21.62;99850.91;5053422;28;20112;-66
2022/08/08 11:23:45;;;;;;;11.25;7.10;;;;;;;38.74;21.63;99849.03;5037361;28;20711;-66
2022/08/08 11:26:13;;;;;;;11.70;6.18;;;;;;;39.31;21.15;99860.31;5086688;28;20044;-66
2022/08/08 11:28:39;;;;;;;11.65;6.63;;;;;;;39.81;20.32;99863.72;5069800;28;20040;-66
2022/08/08 11:31:05;;;;;;;8.60;6.53;;;;;;;40.00;20.21;99864.81;5069692;28;20048;-66
2022/08/08 11:33:35;;;;;;;13.05;6.28;;;;;;;40.05;20.16;99866.53;5088357;28;20066;-65
2022/08/08 11:36:01;;;;;;;12.95;6.57;;;;;;;40.01;20.16;99862.84;5088169;28;20155;-65
2022/08/08 11:38:26;;;;;;;11.27;5.78;;;;;;;39.87;20.17;99842.88;5069194;28;20097;-65
2022/08/08 11:40:53;;;;;;;11.65;5.90;;;;;;;40.02;20.51;99856.09;5036981;28;20047;-65
2022/08/08 11:43:21;;;;;;;17.48;6.55;;;;;;;39.80;20.52;99864.84;5086776;28;20043;-65
2022/08/08 11:45:49;;;;;;;9.88;6.13;;;;;;;39.54;20.58;99864.34;5088056;28;20052;-65
2022/08/08 11:48:15;;;;;;;9.52;5.72;;;;;;;39.44;20.73;99864.78;5069372;28;20413;-65
2022/08/08 11:50:42;;;;;;;11.93;6.07;;;;;;;39.34;21.06;99859.63;5085634;28;20047;-66
2022/08/08 11:53:08;;;;;;;14.02;5.40;;;;;;;39.04;21.32;99838.69;5087921;28;20044;-66
2022/08/08 11:55:34;;;;;;;10.20;6.25;;;;;;;38.99;21.20;99858.31;5069168;28;20063;-65
2022/08/08 11:58:05;;;;;;;12.57;6.13;;;;;;;39.04;21.34;99858.13;5068733;28;20044;-65
2022/08/08 12:00:30;;;;;;;12.43;6.50;;;;;;;39.12;21.25;99855.25;5087457;28;20051;-65
2022/08/08 12:02:58;;;;;;;12.18;5.47;;;;;;;39.32;20.91;99845.28;5106638;28;20039;-67
2022/08/08 12:05:37;;;;;;;9.93;5.15;;;;;;;39.60;20.87;99855.44;5106874;28;20055;-66